createdAt,value
2023-03-02T00:04:24.503Z,17.83
2023-03-02T00:06:53.193Z,17.60
2023-03-02T00:09:21.930Z,15.57
2023-03-02T00:11:50.928Z,20.35
2023-03-02T00:14:18.689Z,20.88
2023-03-02T00:16:46.241Z,19.58
2023-03-02T00:19:14.007Z,19.00
2023-03-02T00:21:41.632Z,19.38
2023-03-02T00:24:09.309Z,20.60
2023-03-02T00:26:37.472Z,21.98
2023-03-02T00:29:08.664Z,25.20
2023-03-02T00:31:36.240Z,30.27
2023-03-02T00:34:03.934Z,27.00
2023-03-02T00:36:31.489Z,26.23
2023-03-02T00:38:59.046Z,28.48
2023-03-02T00:41:26.771Z,26.38
2023-03-02T00:43:54.728Z,30.75
2023-03-02T00:46:28.749Z,33.00
2023-03-02T00:48:56.453Z,33.92
2023-03-02T00:51:25.219Z,36.78
2023-03-02T00:53:53.219Z,40.08
2023-03-02T00:56:21.542Z,32.88
2023-03-02T00:58:52.513Z,44.38
2023-03-02T01:01:20.150Z,42.17
2023-03-02T01:04:04.063Z,43.97
2023-03-02T01:06:32.497Z,44.15
2023-03-02T01:09:00.788Z,47.92
2023-03-02T01:11:30.000Z,50.25
2023-03-02T01:13:57.868Z,54.05
2023-03-02T01:16:25.459Z,53.55
2023-03-02T01:18:53.526Z,53.10
2023-03-02T01:21:29.904Z,59.58
2023-03-02T01:23:57.666Z,64.35
2023-03-02T01:26:25.181Z,64.80
2023-03-02T01:28:55.570Z,64.43
2023-03-02T01:31:24.223Z,63.58
2023-03-02T01:33:53.368Z,63.30
2023-03-02T01:36:22.415Z,70.40
2023-03-02T01:38:54.427Z,66.10
2023-03-02T01:41:22.663Z,74.97
2023-03-02T01:43:52.354Z,68.32
2023-03-02T01:46:24.879Z,71.00
2023-03-02T01:48:55.888Z,73.90
2023-03-02T01:51:44.818Z,72.35
2023-03-02T01:54:17.484Z,70.25
2023-03-02T01:56:46.468Z,72.53
2023-03-02T01:59:15.292Z,78.63
2023-03-02T02:01:45.271Z,77.35
2023-03-02T02:04:13.474Z,78.20
2023-03-02T02:06:43.868Z,79.25
2023-03-02T02:09:13.169Z,77.45
2023-03-02T02:11:43.782Z,83.72
2023-03-02T02:14:11.662Z,78.50
2023-03-02T02:16:46.252Z,77.13
2023-03-02T02:19:36.272Z,82.57
2023-03-02T02:22:03.934Z,74.78
2023-03-02T02:24:38.277Z,82.35
2023-03-02T02:27:06.174Z,76.40
2023-03-02T02:29:39.223Z,79.70
2023-03-02T02:32:16.297Z,76.90
2023-03-02T02:35:22.747Z,76.70
2023-03-02T02:37:53.593Z,79.43
2023-03-02T02:40:23.873Z,76.18
2023-03-02T02:42:53.496Z,77.07
2023-03-02T02:45:28.332Z,83.68
2023-03-02T02:47:56.899Z,79.43
2023-03-02T02:50:35.005Z,86.03
2023-03-02T02:53:12.974Z,86.97
2023-03-02T02:55:41.577Z,90.70
2023-03-02T02:58:26.068Z,83.45
2023-03-02T03:00:58.368Z,82.80
2023-03-02T03:03:32.123Z,85.22
2023-03-02T03:06:08.530Z,80.40
2023-03-02T03:08:57.652Z,81.57
2023-03-02T03:11:36.711Z,81.65
2023-03-02T03:14:07.818Z,82.18
2023-03-02T03:16:37.405Z,88.03
2023-03-02T03:19:24.893Z,86.85
2023-03-02T03:21:55.756Z,85.72
2023-03-02T03:24:25.466Z,84.53
2023-03-02T03:26:55.487Z,73.72
2023-03-02T03:29:24.597Z,77.45
2023-03-02T03:31:56.541Z,78.97
2023-03-02T03:34:26.757Z,81.38
2023-03-02T03:36:54.457Z,85.83
2023-03-02T03:39:23.699Z,80.00
2023-03-02T03:41:53.005Z,89.50
2023-03-02T03:44:21.269Z,83.18
2023-03-02T03:46:48.951Z,83.57
2023-03-02T03:49:17.536Z,88.90
2023-03-02T03:51:45.957Z,88.68
2023-03-02T03:54:13.434Z,92.53
2023-03-02T03:56:43.701Z,79.88
2023-03-02T03:59:13.968Z,85.03
2023-03-02T04:01:57.329Z,92.90
2023-03-02T04:04:33.061Z,93.10
2023-03-02T04:07:03.400Z,89.85
2023-03-02T04:09:34.152Z,84.20
2023-03-02T04:12:02.034Z,82.45
2023-03-02T04:14:29.996Z,80.05
2023-03-02T04:16:58.021Z,89.65
2023-03-02T04:19:26.721Z,90.97
2023-03-02T04:21:58.808Z,88.68
2023-03-02T04:24:27.448Z,83.45
2023-03-02T04:26:58.165Z,89.32
2023-03-02T04:29:26.914Z,89.20
2023-03-02T04:31:55.390Z,85.72
2023-03-02T04:34:25.638Z,83.65
2023-03-02T04:36:54.741Z,83.97
2023-03-02T04:39:25.967Z,88.35
2023-03-02T04:41:54.398Z,88.00
2023-03-02T04:44:22.580Z,88.20
2023-03-02T04:46:52.268Z,94.03
2023-03-02T04:49:21.337Z,92.88
2023-03-02T04:51:49.920Z,92.75
2023-03-02T04:54:22.656Z,84.85
2023-03-02T04:56:52.896Z,88.07
2023-03-02T04:59:24.230Z,83.18
2023-03-02T05:01:52.944Z,92.70
2023-03-02T05:04:21.414Z,95.35
2023-03-02T05:06:49.293Z,97.75
2023-03-02T05:09:24.937Z,97.45
2023-03-02T05:11:55.586Z,96.07
2023-03-02T05:14:24.813Z,97.20
2023-03-02T05:16:53.574Z,94.88
2023-03-02T05:19:22.038Z,96.57
2023-03-02T05:21:53.544Z,94.68
2023-03-02T05:24:24.200Z,97.40
2023-03-02T05:26:52.409Z,88.95
2023-03-02T05:29:22.730Z,91.53
2023-03-02T05:31:53.336Z,95.90
2023-03-02T05:34:22.746Z,92.00
2023-03-02T05:36:51.477Z,92.72
2023-03-02T05:39:19.585Z,95.88
2023-03-02T05:41:48.610Z,100.38
2023-03-02T05:44:16.590Z,96.90
2023-03-02T05:46:44.332Z,100.82
2023-03-02T05:49:11.792Z,95.55
2023-03-02T05:51:39.464Z,95.68
2023-03-02T05:54:07.360Z,86.30
2023-03-02T05:56:35.264Z,105.15
2023-03-02T05:59:03.165Z,94.97
2023-03-02T06:01:30.964Z,94.13
2023-03-02T06:03:59.567Z,87.32
2023-03-02T06:06:27.208Z,98.35
2023-03-02T06:08:54.905Z,93.35
2023-03-02T06:11:23.184Z,94.60
2023-03-02T06:13:51.881Z,82.25
2023-03-02T06:16:19.730Z,88.78
2023-03-02T06:18:48.144Z,91.90
2023-03-02T06:21:16.067Z,82.47
2023-03-02T06:23:44.728Z,84.70
2023-03-02T06:26:13.431Z,93.95
2023-03-02T06:28:56.612Z,88.50
2023-03-02T06:31:24.618Z,87.00
2023-03-02T06:33:52.782Z,92.07
2023-03-02T06:36:25.107Z,89.10
2023-03-02T06:38:59.708Z,88.22
2023-03-02T06:41:27.588Z,87.18
2023-03-02T06:43:55.943Z,89.18
2023-03-02T06:46:23.673Z,83.38
2023-03-02T06:48:52.663Z,88.78
2023-03-02T06:51:21.378Z,92.35
2023-03-02T06:53:49.105Z,91.28
2023-03-02T06:56:16.819Z,83.45
2023-03-02T06:58:45.626Z,84.80
2023-03-02T07:01:13.332Z,86.85
2023-03-02T07:03:41.520Z,79.97
2023-03-02T07:06:09.238Z,85.95
2023-03-02T07:08:38.062Z,87.38
2023-03-02T07:11:06.889Z,92.45
2023-03-02T07:13:34.511Z,99.30
2023-03-02T07:16:06.196Z,83.68
2023-03-02T07:18:35.230Z,87.20
2023-03-02T07:21:03.039Z,90.32
2023-03-02T07:23:30.790Z,92.50
2023-03-02T07:25:58.776Z,86.75
2023-03-02T07:28:26.489Z,82.93
2023-03-02T07:30:54.593Z,88.50
2023-03-02T07:33:23.474Z,103.13
2023-03-02T07:35:52.347Z,83.85
2023-03-02T07:38:21.444Z,85.40
2023-03-02T07:40:49.716Z,88.82
2023-03-02T07:43:17.187Z,81.57
2023-03-02T07:45:45.242Z,85.32
2023-03-02T07:48:13.009Z,86.80
2023-03-02T07:50:40.806Z,86.70
2023-03-02T07:53:08.540Z,80.30
2023-03-02T07:55:35.993Z,81.55
2023-03-02T07:58:04.508Z,85.72
2023-03-02T08:00:32.173Z,82.25
2023-03-02T08:02:59.815Z,80.05
2023-03-02T08:05:27.387Z,75.90
2023-03-02T08:07:55.354Z,75.78
2023-03-02T08:10:24.235Z,74.90
2023-03-02T08:12:53.775Z,80.60
2023-03-02T08:15:24.042Z,76.63
2023-03-02T08:17:53.139Z,70.32
2023-03-02T08:20:21.323Z,79.43
2023-03-02T08:22:48.974Z,78.68
2023-03-02T08:25:16.463Z,71.28
2023-03-02T08:27:46.356Z,75.72
2023-03-02T08:30:14.459Z,79.20
2023-03-02T08:32:42.457Z,65.53
2023-03-02T08:35:10.117Z,62.40
2023-03-02T08:37:37.722Z,69.57
2023-03-02T08:40:05.622Z,69.50
2023-03-02T08:42:33.380Z,62.70
2023-03-02T08:45:00.938Z,65.05
2023-03-02T08:47:28.633Z,66.90
2023-03-02T08:49:58.614Z,65.93
2023-03-02T08:52:26.472Z,63.67
2023-03-02T08:54:54.950Z,66.03
2023-03-02T08:57:25.316Z,63.03
2023-03-02T08:59:53.557Z,69.03
2023-03-02T09:02:21.621Z,61.92
2023-03-02T09:04:49.738Z,62.22
2023-03-02T09:07:17.702Z,59.05
2023-03-02T09:09:45.556Z,56.60
2023-03-02T09:12:13.510Z,59.08
2023-03-02T09:14:41.618Z,61.25
2023-03-02T09:17:09.604Z,60.55
2023-03-02T09:19:44.340Z,58.47
2023-03-02T09:22:12.914Z,59.53
2023-03-02T09:24:40.668Z,54.25
2023-03-02T09:27:12.636Z,63.28
2023-03-02T09:29:43.558Z,51.78
2023-03-02T09:32:12.165Z,52.80
2023-03-02T09:34:39.817Z,50.67
2023-03-02T09:37:07.912Z,51.45
2023-03-02T09:39:35.541Z,49.22
2023-03-02T09:42:09.522Z,57.05
2023-03-02T09:45:09.833Z,46.33
2023-03-02T09:47:55.400Z,46.75
2023-03-02T09:50:40.514Z,49.15
2023-03-02T09:53:09.137Z,45.35
2023-03-02T09:55:37.485Z,41.00
2023-03-02T09:58:14.214Z,48.08
2023-03-02T10:00:44.073Z,44.08
2023-03-02T10:03:17.966Z,43.38
2023-03-02T10:05:49.560Z,46.20
2023-03-02T10:08:22.846Z,42.92
2023-03-02T10:11:10.124Z,41.53
2023-03-02T10:13:56.838Z,41.17
2023-03-02T10:16:32.254Z,39.45
2023-03-02T10:19:00.408Z,34.85
2023-03-02T10:21:30.398Z,36.90
2023-03-02T10:23:58.169Z,39.83
2023-03-02T10:26:42.334Z,40.35
2023-03-02T10:29:23.456Z,40.42
2023-03-02T10:31:55.838Z,38.05
2023-03-02T10:34:26.635Z,34.90
2023-03-02T10:36:54.230Z,35.22
2023-03-02T10:39:25.560Z,41.55
2023-03-02T10:42:01.626Z,36.83
2023-03-02T10:44:31.397Z,33.65
2023-03-02T10:46:59.467Z,36.28
2023-03-02T10:49:35.269Z,37.30
2023-03-02T10:52:07.014Z,32.95
2023-03-02T10:54:37.214Z,35.33
2023-03-02T10:57:06.421Z,32.40
2023-03-02T10:59:43.836Z,36.42
2023-03-02T11:02:16.320Z,34.35
2023-03-02T11:04:44.297Z,38.88
2023-03-02T11:07:17.759Z,33.00
2023-03-02T11:10:06.309Z,29.65
2023-03-02T11:12:36.553Z,28.10
2023-03-02T11:15:17.191Z,30.05
2023-03-02T11:20:25.497Z,28.40
2023-03-02T11:22:54.001Z,27.75
2023-03-02T11:25:28.040Z,23.73
2023-03-02T11:27:59.972Z,29.75
2023-03-02T11:30:29.810Z,25.83
2023-03-02T11:33:08.410Z,28.70
2023-03-02T11:36:09.776Z,23.88
2023-03-02T11:38:52.619Z,25.17
2023-03-02T11:41:27.552Z,25.55
2023-03-02T11:43:55.535Z,26.20
2023-03-02T11:46:26.500Z,24.85
2023-03-02T11:48:56.451Z,23.60
2023-03-02T11:51:28.720Z,26.08
2023-03-02T11:54:05.205Z,18.88
2023-03-02T11:56:34.483Z,22.08
2023-03-02T11:59:09.184Z,20.55
2023-03-02T12:01:42.373Z,22.95
2023-03-02T12:04:12.538Z,23.95
2023-03-02T12:06:41.102Z,25.13
2023-03-02T12:09:26.143Z,18.98
2023-03-02T12:12:17.127Z,22.25
2023-03-02T12:14:44.815Z,20.48
2023-03-02T12:17:30.699Z,18.95
2023-03-02T12:20:08.117Z,21.05
2023-03-02T12:22:36.624Z,20.48
2023-03-02T12:25:26.616Z,18.60
2023-03-02T12:27:55.788Z,18.98
2023-03-02T12:30:26.249Z,20.23
2023-03-02T12:33:00.206Z,20.77
2023-03-02T12:35:29.991Z,19.00
2023-03-02T12:38:02.738Z,24.75
2023-03-02T12:40:30.521Z,22.15
2023-03-02T12:43:24.726Z,19.67
2023-03-02T12:46:11.834Z,17.90
2023-03-02T12:48:54.330Z,19.48
2023-03-02T12:51:23.639Z,18.38
2023-03-02T12:53:52.503Z,18.55
2023-03-02T12:56:26.638Z,21.95
2023-03-02T12:58:55.101Z,17.58
2023-03-02T13:01:28.252Z,20.48
2023-03-02T13:03:56.293Z,18.40
2023-03-02T13:06:25.198Z,16.98
2023-03-02T13:08:57.794Z,16.13
2023-03-02T13:11:31.387Z,16.98
2023-03-02T13:13:59.945Z,14.55
2023-03-02T13:16:32.872Z,18.15
2023-03-02T13:19:07.141Z,16.98
2023-03-02T13:21:38.336Z,15.57
2023-03-02T13:24:25.985Z,16.90
2023-03-02T13:27:00.713Z,19.77
2023-03-02T13:29:29.334Z,17.30
2023-03-02T13:31:57.087Z,18.42
2023-03-02T13:34:29.470Z,16.33
2023-03-02T13:36:57.321Z,16.42
2023-03-02T13:39:30.568Z,17.95
2023-03-02T13:42:00.861Z,16.45
2023-03-02T13:44:33.031Z,16.38
2023-03-02T13:47:01.028Z,18.45
2023-03-02T13:49:30.915Z,19.58
2023-03-02T13:52:02.791Z,16.52
2023-03-02T13:54:32.197Z,19.45
2023-03-02T13:57:00.930Z,22.80
2023-03-02T13:59:28.728Z,19.50
2023-03-02T14:01:56.669Z,21.52
2023-03-02T14:04:24.574Z,19.90
2023-03-02T14:06:53.411Z,23.52
2023-03-02T14:09:23.398Z,26.42
2023-03-02T14:11:57.168Z,23.40
2023-03-02T14:14:25.719Z,20.08
2023-03-02T14:16:53.678Z,22.50
2023-03-02T14:19:25.319Z,23.25
2023-03-02T14:21:53.622Z,20.67
2023-03-02T14:24:22.664Z,21.17
2023-03-02T14:26:53.497Z,21.58
2023-03-02T14:29:26.471Z,21.92
2023-03-02T14:32:00.420Z,19.88
2023-03-02T14:34:28.252Z,20.92
2023-03-02T14:36:57.554Z,20.13
2023-03-02T14:39:25.513Z,21.08
2023-03-02T14:41:54.720Z,21.08
2023-03-02T14:44:23.631Z,21.23
2023-03-02T14:46:53.259Z,18.75
2023-03-02T14:49:24.814Z,21.40
2023-03-02T14:52:12.182Z,17.00
2023-03-02T14:54:52.448Z,19.67
2023-03-02T14:57:30.788Z,19.92
2023-03-02T15:00:00.090Z,19.48
2023-03-02T15:02:28.146Z,16.92
2023-03-02T15:04:57.755Z,18.92
2023-03-02T15:07:27.031Z,18.00
2023-03-02T15:09:55.629Z,20.73
2023-03-02T15:12:24.130Z,21.65
2023-03-02T15:14:52.481Z,20.90
2023-03-02T15:17:21.873Z,18.17
2023-03-02T15:19:49.887Z,20.90
2023-03-02T15:22:19.617Z,23.33
2023-03-02T15:24:48.153Z,18.83
2023-03-02T15:27:16.580Z,25.38
2023-03-02T15:29:48.338Z,24.13
2023-03-02T15:32:16.490Z,21.63
2023-03-02T15:34:44.595Z,22.15
2023-03-02T15:37:13.015Z,21.63
2023-03-02T15:39:41.031Z,20.15
2023-03-02T15:42:08.938Z,20.75
2023-03-02T15:44:36.619Z,24.83
2023-03-02T15:47:04.806Z,22.67
2023-03-02T15:49:33.070Z,21.90
2023-03-02T15:52:01.390Z,23.10
2023-03-02T15:54:29.398Z,25.27
2023-03-02T15:56:57.327Z,25.52
2023-03-02T15:59:25.992Z,23.50
2023-03-02T16:01:54.337Z,20.85
2023-03-02T16:04:23.800Z,22.25
2023-03-02T16:06:55.090Z,20.15
2023-03-02T16:09:23.808Z,25.38
2023-03-02T16:11:53.209Z,22.00
2023-03-02T16:14:22.805Z,20.37
2023-03-02T16:16:54.389Z,21.30
2023-03-02T16:19:23.448Z,20.58
2023-03-02T16:21:53.351Z,22.45
2023-03-02T16:24:24.425Z,22.70
2023-03-02T16:26:53.889Z,22.55
2023-03-02T16:29:24.453Z,25.57
2023-03-02T16:36:50.077Z,23.17
2023-03-02T16:39:19.197Z,23.00
2023-03-02T16:41:47.263Z,24.92
2023-03-02T16:44:16.167Z,23.33
2023-03-02T16:46:44.196Z,27.38
2023-03-02T16:49:12.580Z,25.65
2023-03-02T16:51:40.048Z,26.15
2023-03-02T16:54:07.873Z,24.33
2023-03-02T16:56:35.551Z,25.88
2023-03-02T16:59:03.776Z,23.00
2023-03-02T17:01:31.515Z,26.27
2023-03-02T17:03:59.244Z,21.85
2023-03-02T17:06:26.869Z,25.90
2023-03-02T17:08:54.385Z,21.75
2023-03-02T17:11:23.221Z,24.95
2023-03-02T17:13:51.364Z,22.50
2023-03-02T17:16:19.967Z,22.30
2023-03-02T17:18:53.854Z,23.38
2023-03-02T17:21:22.887Z,24.45
2023-03-02T17:23:51.132Z,21.52
2023-03-02T17:26:19.103Z,28.35
2023-03-02T17:28:46.972Z,24.05
2023-03-02T17:31:14.583Z,25.05
2023-03-02T17:33:42.180Z,24.65
2023-03-02T17:36:12.188Z,25.58
2023-03-02T17:38:40.392Z,23.42
2023-03-02T17:41:11.258Z,24.27
2023-03-02T17:43:41.275Z,22.88
2023-03-02T17:46:10.460Z,21.85
2023-03-02T17:48:38.164Z,25.88
2023-03-02T17:51:06.165Z,32.10
2023-03-02T17:53:34.175Z,29.70
2023-03-02T17:56:02.093Z,33.47
2023-03-02T17:58:42.822Z,28.35
2023-03-02T18:01:13.369Z,28.13
2023-03-02T18:06:48.195Z,29.65
2023-03-02T18:09:15.742Z,29.58
2023-03-02T18:11:45.287Z,32.30
2023-03-02T18:14:17.575Z,30.33
2023-03-02T18:16:46.474Z,29.65
2023-03-02T18:19:15.020Z,33.28
2023-03-02T18:21:42.732Z,31.50
2023-03-02T18:24:10.701Z,32.13
2023-03-02T18:26:39.326Z,33.63
2023-03-02T18:29:07.440Z,34.95
2023-03-02T18:31:35.164Z,31.63
2023-03-02T18:34:03.878Z,35.97
2023-03-02T18:36:31.588Z,35.22
2023-03-02T18:38:59.083Z,39.22
2023-03-02T18:41:30.273Z,40.38
2023-03-02T18:44:01.660Z,34.55
2023-03-02T18:46:30.595Z,34.28
2023-03-02T18:49:00.577Z,34.63
2023-03-02T18:51:28.820Z,35.08
2023-03-02T18:53:57.299Z,37.92
2023-03-02T18:56:25.456Z,35.42
2023-03-02T18:58:53.673Z,41.92
2023-03-02T19:01:22.589Z,41.67
2023-03-02T19:03:51.687Z,37.65
2023-03-02T19:06:23.079Z,41.50
2023-03-02T19:08:52.708Z,41.20
2023-03-02T19:11:23.316Z,38.73
2023-03-02T19:16:23.467Z,37.88
2023-03-02T19:18:51.452Z,37.13
2023-03-02T19:21:25.131Z,36.70
2023-03-02T19:23:53.943Z,40.58
2023-03-02T19:26:27.715Z,38.53
2023-03-02T19:28:58.540Z,35.15
2023-03-02T19:31:31.419Z,36.33
2023-03-02T19:33:59.256Z,35.58
2023-03-02T19:36:27.151Z,34.63
2023-03-02T19:38:54.836Z,34.80
2023-03-02T19:41:23.490Z,35.33
2023-03-02T19:44:00.881Z,36.90
2023-03-02T19:46:31.776Z,40.60
2023-03-02T19:48:59.382Z,40.78
2023-03-02T19:51:26.961Z,41.47
2023-03-02T19:53:55.019Z,37.38
2023-03-02T19:56:30.370Z,39.15
2023-03-02T19:59:00.504Z,41.58
2023-03-02T20:01:30.243Z,47.53
2023-03-02T20:03:58.373Z,43.22
2023-03-02T20:06:27.162Z,44.70
2023-03-02T20:08:55.450Z,41.13
2023-03-02T20:11:25.358Z,40.25
2023-03-02T20:13:53.705Z,45.75
2023-03-02T20:16:23.055Z,45.88
2023-03-02T20:18:55.061Z,45.42
2023-03-02T20:21:25.963Z,44.92
2023-03-02T20:23:54.554Z,42.08
2023-03-02T20:26:24.671Z,48.03
2023-03-02T20:28:53.996Z,49.85
2023-03-02T20:31:24.147Z,42.03
2023-03-02T20:33:53.769Z,46.78
2023-03-02T20:36:25.174Z,46.28
2023-03-02T20:38:55.948Z,49.53
2023-03-02T20:41:24.037Z,47.58
2023-03-02T20:43:52.885Z,47.58
2023-03-02T20:46:23.656Z,51.78
2023-03-02T20:48:54.731Z,48.35
2023-03-02T20:51:23.614Z,47.63
2023-03-02T20:53:51.438Z,51.05
2023-03-02T20:56:25.780Z,53.25
2023-03-02T20:58:53.774Z,52.03
2023-03-02T21:01:25.586Z,52.55
2023-03-02T21:03:53.615Z,49.53
2023-03-02T21:06:22.313Z,49.70
2023-03-02T21:08:50.093Z,51.92
2023-03-02T21:11:23.682Z,50.55
2023-03-02T21:13:53.089Z,48.33
2023-03-02T21:16:24.122Z,58.22
2023-03-02T21:18:52.576Z,51.33
2023-03-02T21:21:29.695Z,60.53
2023-03-02T21:24:03.694Z,56.25
2023-03-02T21:26:31.488Z,56.38
2023-03-02T21:28:59.463Z,60.38
2023-03-02T21:31:27.774Z,54.92
2023-03-02T21:33:55.994Z,60.33
2023-03-02T21:36:25.088Z,52.88
2023-03-02T21:38:53.930Z,55.78
2023-03-02T21:41:24.171Z,50.35
2023-03-02T21:43:55.025Z,54.13
2023-03-02T21:46:27.234Z,54.72
2023-03-02T21:48:54.955Z,54.17
2023-03-02T21:51:29.010Z,59.45
2023-03-02T21:53:56.468Z,52.53
2023-03-02T21:56:24.815Z,62.00
2023-03-02T21:58:56.557Z,55.42
2023-03-02T22:01:25.114Z,55.38
2023-03-02T22:03:56.064Z,60.22
2023-03-02T22:06:25.977Z,55.42
2023-03-02T22:08:53.790Z,56.58
2023-03-02T22:11:23.112Z,58.58
2023-03-02T22:13:52.126Z,56.38
2023-03-02T22:16:25.889Z,58.08
2023-03-02T22:19:00.579Z,55.83
2023-03-02T22:21:31.397Z,56.20
2023-03-02T22:24:03.988Z,57.97
2023-03-02T22:26:33.304Z,56.35
2023-03-02T22:31:29.610Z,54.00
2023-03-02T22:33:59.052Z,58.08
2023-03-02T22:36:26.949Z,62.35
2023-03-02T22:38:55.993Z,58.38
2023-03-02T22:41:24.454Z,58.95
2023-03-02T22:43:53.008Z,64.90
2023-03-02T22:46:22.749Z,58.15
2023-03-02T22:48:52.497Z,59.38
2023-03-02T22:51:28.865Z,60.67
2023-03-02T22:53:58.131Z,61.60
2023-03-02T22:56:35.313Z,62.35
2023-03-02T22:59:18.276Z,68.28
2023-03-02T23:01:46.108Z,64.35
2023-03-02T23:04:17.956Z,58.17
2023-03-02T23:06:47.575Z,55.92
2023-03-02T23:09:21.349Z,62.40
2023-03-02T23:11:49.502Z,64.40
2023-03-02T23:14:17.282Z,67.90
2023-03-02T23:16:44.975Z,62.58
2023-03-02T23:19:13.928Z,61.63
2023-03-02T23:21:45.756Z,65.78
2023-03-02T23:24:13.474Z,58.97
2023-03-02T23:26:41.511Z,62.55
2023-03-02T23:29:09.026Z,64.20
2023-03-02T23:31:37.476Z,56.80
2023-03-02T23:34:05.501Z,58.97
2023-03-02T23:36:33.404Z,57.70
2023-03-02T23:39:01.510Z,55.38
2023-03-02T23:41:29.776Z,57.35
2023-03-02T23:43:57.354Z,58.80
2023-03-02T23:46:25.936Z,55.30
2023-03-02T23:48:56.200Z,57.95
2023-03-02T23:51:29.396Z,66.20
2023-03-02T23:53:57.037Z,58.25
2023-03-02T23:56:25.393Z,59.83
2023-03-02T23:58:53.607Z,59.17
